createdAt,value
2023-05-21T00:01:07.129Z,21.50
2023-05-21T00:03:36.206Z,20.08
2023-05-21T00:06:04.040Z,24.33
2023-05-21T00:08:31.097Z,22.17
2023-05-21T00:10:58.186Z,23.20
2023-05-21T00:13:25.105Z,19.33
2023-05-21T00:15:51.863Z,19.58
2023-05-21T00:18:18.521Z,21.20
2023-05-21T00:20:45.767Z,19.55
2023-05-21T00:23:12.736Z,20.67
2023-05-21T00:25:39.462Z,22.70
2023-05-21T00:28:06.071Z,22.10
2023-05-21T00:30:32.671Z,25.83
2023-05-21T00:33:02.497Z,19.67
2023-05-21T00:35:29.713Z,20.35
2023-05-21T00:37:56.371Z,24.67
2023-05-21T00:40:23.254Z,20.27
2023-05-21T00:42:49.934Z,21.48
2023-05-21T00:45:16.707Z,21.88
2023-05-21T00:47:43.908Z,21.23
2023-05-21T00:50:11.830Z,20.23
2023-05-21T00:52:42.158Z,22.60
2023-05-21T00:55:09.996Z,21.15
2023-05-21T00:57:39.300Z,20.73
2023-05-21T01:00:08.793Z,18.02
2023-05-21T01:02:37.316Z,19.95
2023-05-21T01:05:08.211Z,21.45
2023-05-21T01:07:36.506Z,21.00
2023-05-21T01:10:07.931Z,21.20
2023-05-21T01:12:35.592Z,19.95
2023-05-21T01:15:04.035Z,22.05
2023-05-21T01:17:31.868Z,20.58
2023-05-21T01:19:59.194Z,19.95
2023-05-21T01:22:29.001Z,23.63
2023-05-21T01:24:56.792Z,22.65
2023-05-21T01:27:23.512Z,24.70
2023-05-21T01:29:50.363Z,23.95
2023-05-21T01:32:44.214Z,21.45
2023-05-21T01:35:18.842Z,21.10
2023-05-21T01:37:52.273Z,23.73
2023-05-21T01:40:30.107Z,22.42
2023-05-21T01:42:57.286Z,21.25
2023-05-21T01:45:25.297Z,23.58
2023-05-21T01:47:54.155Z,22.42
2023-05-21T01:50:22.875Z,25.00
2023-05-21T01:52:54.856Z,21.58
2023-05-21T01:55:28.198Z,19.15
2023-05-21T01:57:55.841Z,23.02
2023-05-21T02:00:24.586Z,21.98
2023-05-21T02:02:51.952Z,21.95
2023-05-21T02:05:18.914Z,21.05
2023-05-21T02:07:47.902Z,21.58
2023-05-21T02:10:14.510Z,23.30
2023-05-21T02:12:41.938Z,20.25
2023-05-21T02:15:09.274Z,20.58
2023-05-21T02:17:38.167Z,21.42
2023-05-21T02:20:11.776Z,21.65
2023-05-21T02:22:43.910Z,21.20
2023-05-21T02:25:12.026Z,19.58
2023-05-21T02:27:39.608Z,22.00
2023-05-21T02:30:08.564Z,23.70
2023-05-21T02:32:35.623Z,21.45
2023-05-21T02:35:03.812Z,23.77
2023-05-21T02:37:33.938Z,19.70
2023-05-21T02:40:01.797Z,22.25
2023-05-21T02:42:28.385Z,21.42
2023-05-21T02:44:55.048Z,19.40
2023-05-21T02:47:23.635Z,20.00
2023-05-21T02:49:51.504Z,23.45
2023-05-21T02:52:19.734Z,25.30
2023-05-21T02:54:46.953Z,20.77
2023-05-21T02:57:13.757Z,20.25
2023-05-21T02:59:40.661Z,20.25
2023-05-21T03:02:07.522Z,19.13
2023-05-21T03:04:38.806Z,21.10
2023-05-21T03:07:06.167Z,21.27
2023-05-21T03:09:32.699Z,21.55
2023-05-21T03:11:59.200Z,18.58
2023-05-21T03:14:26.464Z,22.52
2023-05-21T03:16:53.075Z,20.15
2023-05-21T03:19:20.944Z,21.27
2023-05-21T03:21:49.058Z,22.35
2023-05-21T03:24:15.608Z,21.00
2023-05-21T03:26:42.323Z,20.85
2023-05-21T03:29:09.004Z,22.77
2023-05-21T03:31:35.937Z,20.77
2023-05-21T03:34:02.480Z,21.23
2023-05-21T03:36:29.129Z,20.25
2023-05-21T03:38:56.049Z,20.25
2023-05-21T03:41:22.628Z,23.90
2023-05-21T03:43:49.237Z,21.23
2023-05-21T03:46:15.972Z,22.15
2023-05-21T03:48:42.609Z,19.15
2023-05-21T03:51:09.608Z,21.67
2023-05-21T03:53:37.052Z,22.98
2023-05-21T03:56:03.664Z,21.33
2023-05-21T03:58:30.283Z,24.02
2023-05-21T04:00:56.826Z,19.77
2023-05-21T04:03:23.528Z,19.38
2023-05-21T04:05:50.181Z,20.00
2023-05-21T04:08:16.852Z,21.70
2023-05-21T04:10:43.628Z,18.20
2023-05-21T04:13:10.513Z,23.17
2023-05-21T04:15:38.665Z,20.45
2023-05-21T04:18:07.280Z,19.88
2023-05-21T04:20:33.953Z,20.10
2023-05-21T04:23:01.381Z,23.33
2023-05-21T04:25:28.551Z,23.63
2023-05-21T04:27:55.242Z,22.35
2023-05-21T04:30:22.059Z,21.40
2023-05-21T04:32:48.886Z,21.35
2023-05-21T04:35:15.601Z,20.98
2023-05-21T04:37:42.424Z,22.40
2023-05-21T04:40:09.841Z,22.02
2023-05-21T04:42:36.723Z,20.00
2023-05-21T04:45:03.666Z,21.25
2023-05-21T04:47:30.359Z,20.73
2023-05-21T04:49:57.317Z,22.20
2023-05-21T04:52:25.104Z,20.15
2023-05-21T04:54:51.838Z,18.10
2023-05-21T04:57:19.130Z,20.58
2023-05-21T04:59:46.985Z,19.23
2023-05-21T05:02:13.653Z,23.13
2023-05-21T05:04:40.463Z,20.00
2023-05-21T05:07:07.523Z,18.60
2023-05-21T05:09:34.060Z,20.77
2023-05-21T05:12:00.924Z,19.27
2023-05-21T05:14:27.676Z,19.77
2023-05-21T05:16:54.701Z,20.02
2023-05-21T05:19:21.454Z,16.98
2023-05-21T05:21:48.142Z,17.88
2023-05-21T05:24:16.200Z,18.58
2023-05-21T05:26:42.896Z,20.50
2023-05-21T05:29:09.828Z,15.90
2023-05-21T05:31:36.379Z,16.13
2023-05-21T05:34:02.949Z,18.58
2023-05-21T05:36:29.782Z,18.90
2023-05-21T05:38:56.392Z,18.65
2023-05-21T05:41:23.180Z,18.88
2023-05-21T05:43:49.913Z,16.90
2023-05-21T05:46:16.642Z,14.82
2023-05-21T05:48:43.509Z,17.35
2023-05-21T05:51:11.910Z,16.55
2023-05-21T05:53:38.736Z,14.50
2023-05-21T05:56:05.929Z,14.63
2023-05-21T05:58:32.770Z,17.90
2023-05-21T06:01:00.599Z,14.95
2023-05-21T06:03:28.222Z,17.77
2023-05-21T06:05:55.379Z,17.67
2023-05-21T06:08:21.938Z,15.50
2023-05-21T06:10:48.677Z,14.80
2023-05-21T06:13:15.218Z,15.05
2023-05-21T06:15:44.704Z,13.18
2023-05-21T06:18:11.707Z,17.77
2023-05-21T06:20:38.559Z,13.95
2023-05-21T06:23:06.476Z,13.65
2023-05-21T06:25:33.102Z,17.52
2023-05-21T06:27:59.690Z,13.00
2023-05-21T06:30:26.838Z,12.70
2023-05-21T06:32:53.611Z,13.82
2023-05-21T06:35:20.503Z,15.93
2023-05-21T06:37:48.650Z,12.48
2023-05-21T06:40:15.548Z,14.02
2023-05-21T06:42:42.083Z,15.32
2023-05-21T06:45:09.157Z,15.40
2023-05-21T06:47:35.940Z,11.18
2023-05-21T06:50:02.633Z,15.38
2023-05-21T06:52:31.655Z,15.05
2023-05-21T06:54:58.515Z,14.85
2023-05-21T06:57:25.038Z,14.45
2023-05-21T06:59:51.639Z,13.55
2023-05-21T07:02:18.257Z,13.80
2023-05-21T07:04:45.130Z,14.30
2023-05-21T07:07:11.913Z,12.77
2023-05-21T07:09:38.552Z,13.27
2023-05-21T07:12:05.559Z,12.43
2023-05-21T07:14:32.254Z,13.27
2023-05-21T07:16:59.057Z,13.73
2023-05-21T07:19:25.712Z,13.05
2023-05-21T07:21:52.646Z,15.77
2023-05-21T07:24:19.306Z,12.02
2023-05-21T07:26:46.080Z,15.98
2023-05-21T07:29:12.577Z,13.20
2023-05-21T07:31:39.422Z,12.90
2023-05-21T07:34:06.056Z,14.68
2023-05-21T07:36:33.795Z,14.98
2023-05-21T07:39:00.939Z,13.40
2023-05-21T07:41:27.471Z,12.50
2023-05-21T07:43:54.127Z,13.77
2023-05-21T07:46:20.859Z,12.95
2023-05-21T07:48:48.419Z,13.23
2023-05-21T07:51:16.560Z,11.77
2023-05-21T07:53:43.079Z,14.63
2023-05-21T07:56:09.967Z,12.77
2023-05-21T07:58:36.536Z,12.85
2023-05-21T08:01:03.152Z,12.75
2023-05-21T08:03:33.009Z,12.38
2023-05-21T08:06:00.005Z,13.85
2023-05-21T08:08:26.701Z,11.10
2023-05-21T08:10:53.286Z,11.73
2023-05-21T08:13:20.178Z,11.15
2023-05-21T08:15:47.101Z,12.80
2023-05-21T08:18:13.755Z,12.05
2023-05-21T08:20:41.348Z,12.95
2023-05-21T08:23:07.923Z,11.25
2023-05-21T08:25:34.972Z,13.23
2023-05-21T08:28:01.620Z,10.68
2023-05-21T08:30:28.356Z,13.23
2023-05-21T08:32:55.316Z,11.90
2023-05-21T08:35:22.100Z,12.05
2023-05-21T08:37:48.664Z,12.57
2023-05-21T08:40:15.672Z,11.20
2023-05-21T08:42:47.402Z,10.38
2023-05-21T08:45:18.525Z,11.65
2023-05-21T08:47:45.235Z,12.60
2023-05-21T08:50:13.792Z,10.43
2023-05-21T08:52:41.139Z,11.95
2023-05-21T08:55:08.983Z,10.82
2023-05-21T08:57:36.634Z,9.88
2023-05-21T09:00:06.346Z,11.02
2023-05-21T09:02:40.533Z,10.02
2023-05-21T09:05:09.313Z,9.00
2023-05-21T09:08:02.493Z,9.88
2023-05-21T09:10:34.746Z,9.63
2023-05-21T09:13:02.688Z,9.68
2023-05-21T09:15:29.794Z,9.90
2023-05-21T09:17:56.527Z,14.35
2023-05-21T09:20:27.322Z,8.90
2023-05-21T09:22:55.387Z,10.55
2023-05-21T09:25:25.186Z,10.02
2023-05-21T09:27:51.707Z,9.40
2023-05-21T09:30:21.023Z,10.05
2023-05-21T09:32:56.336Z,9.30
2023-05-21T09:35:23.151Z,10.25
2023-05-21T09:37:52.402Z,10.05
2023-05-21T09:40:21.602Z,7.70
2023-05-21T09:42:53.352Z,9.77
2023-05-21T09:45:21.591Z,8.18
2023-05-21T09:47:50.280Z,9.30
2023-05-21T09:50:27.874Z,10.45
2023-05-21T09:52:55.603Z,8.10
2023-05-21T09:55:23.467Z,9.60
2023-05-21T09:57:51.051Z,10.43
2023-05-21T10:00:23.298Z,11.00
2023-05-21T10:02:54.157Z,10.98
2023-05-21T10:05:21.350Z,9.05
2023-05-21T10:07:51.326Z,10.02
2023-05-21T10:10:21.102Z,8.00
2023-05-21T10:12:48.793Z,8.90
2023-05-21T10:15:17.377Z,9.48
2023-05-21T10:17:44.595Z,9.55
2023-05-21T10:20:12.509Z,8.35
2023-05-21T10:22:39.995Z,10.25
2023-05-21T10:25:07.947Z,8.13
2023-05-21T10:27:37.658Z,9.20
2023-05-21T10:30:05.867Z,10.23
2023-05-21T10:32:33.394Z,12.02
2023-05-21T10:35:02.008Z,10.63
2023-05-21T10:37:29.277Z,11.93
2023-05-21T10:39:56.585Z,12.02
2023-05-21T10:42:32.564Z,12.20
2023-05-21T10:45:07.896Z,12.73
2023-05-21T10:48:12.580Z,12.52
2023-05-21T10:51:08.221Z,10.43
2023-05-21T10:53:44.194Z,10.88
2023-05-21T10:56:29.567Z,8.82
2023-05-21T10:59:26.780Z,12.60
2023-05-21T11:01:54.169Z,9.45
2023-05-21T11:04:27.013Z,9.63
2023-05-21T11:06:53.604Z,8.35
2023-05-21T11:09:20.454Z,7.60
2023-05-21T11:11:58.145Z,7.75
2023-05-21T11:14:39.143Z,9.48
2023-05-21T11:17:40.225Z,6.10
2023-05-21T11:20:14.278Z,6.32
2023-05-21T11:22:41.158Z,6.78
2023-05-21T11:25:08.412Z,6.68
2023-05-21T11:27:38.741Z,5.95
2023-05-21T11:30:09.828Z,6.97
2023-05-21T11:32:41.175Z,8.82
2023-05-21T11:35:08.168Z,8.40
2023-05-21T11:37:35.109Z,7.68
2023-05-21T11:40:25.668Z,6.72
2023-05-21T11:42:53.835Z,7.90
2023-05-21T11:45:22.333Z,7.93
2023-05-21T11:47:50.084Z,6.85
2023-05-21T11:50:17.622Z,7.05
2023-05-21T11:52:44.801Z,8.75
2023-05-21T11:55:11.559Z,6.40
2023-05-21T11:57:41.732Z,6.35
2023-05-21T12:00:15.289Z,7.88
2023-05-21T12:02:51.247Z,6.78
2023-05-21T12:05:18.350Z,8.40
2023-05-21T12:07:50.029Z,8.50
2023-05-21T12:10:17.208Z,8.82
2023-05-21T12:12:54.697Z,7.93
2023-05-21T12:15:25.034Z,7.57
2023-05-21T12:17:53.197Z,8.35
2023-05-21T12:20:28.545Z,7.78
2023-05-21T12:22:57.063Z,7.43
2023-05-21T12:25:23.927Z,8.30
2023-05-21T12:27:58.764Z,9.52
2023-05-21T12:30:26.076Z,7.97
2023-05-21T12:32:52.779Z,9.52
2023-05-21T12:35:23.840Z,8.00
2023-05-21T12:37:51.114Z,9.98
2023-05-21T12:40:18.280Z,8.52
2023-05-21T12:42:45.295Z,8.30
2023-05-21T12:45:12.614Z,7.65
2023-05-21T12:47:39.288Z,8.73
2023-05-21T12:50:11.853Z,8.73
2023-05-21T12:52:40.542Z,7.75
2023-05-21T12:55:09.544Z,7.93
2023-05-21T12:57:38.720Z,8.13
2023-05-21T13:00:07.014Z,9.05
2023-05-21T13:02:35.852Z,8.60
2023-05-21T13:05:04.562Z,8.73
2023-05-21T13:07:32.961Z,8.30
2023-05-21T13:10:01.095Z,10.15
2023-05-21T13:12:29.757Z,9.25
2023-05-21T13:15:01.553Z,9.55
2023-05-21T13:17:28.746Z,10.48
2023-05-21T13:20:12.732Z,10.07
2023-05-21T13:22:43.857Z,9.77
2023-05-21T13:25:11.739Z,10.25
2023-05-21T13:27:39.579Z,12.07
2023-05-21T13:30:07.083Z,9.55
2023-05-21T13:32:34.465Z,10.65
2023-05-21T13:35:01.584Z,9.55
2023-05-21T13:37:28.261Z,9.63
2023-05-21T13:39:54.866Z,9.55
2023-05-21T13:42:21.489Z,9.02
2023-05-21T13:44:48.677Z,8.20
2023-05-21T13:47:15.673Z,9.00
2023-05-21T13:49:42.869Z,8.75
2023-05-21T13:52:10.109Z,8.73
2023-05-21T13:54:36.827Z,8.65
2023-05-21T13:57:03.919Z,10.60
2023-05-21T13:59:33.260Z,7.55
2023-05-21T14:02:00.852Z,6.45
2023-05-21T14:04:28.061Z,7.32
2023-05-21T14:06:54.897Z,7.07
2023-05-21T14:09:23.333Z,7.40
2023-05-21T14:11:50.182Z,5.88
2023-05-21T14:14:19.071Z,7.07
2023-05-21T14:16:47.148Z,6.82
2023-05-21T14:19:14.442Z,6.38
2023-05-21T14:21:41.824Z,6.63
2023-05-21T14:24:08.591Z,6.40
2023-05-21T14:26:42.648Z,6.18
2023-05-21T14:29:09.800Z,8.35
2023-05-21T14:31:36.647Z,7.55
2023-05-21T14:34:03.661Z,8.43
2023-05-21T14:36:30.217Z,8.23
2023-05-21T14:38:56.810Z,6.97
2023-05-21T14:41:27.190Z,9.93
2023-05-21T14:43:54.763Z,7.45
2023-05-21T14:46:22.382Z,8.65
2023-05-21T14:48:49.212Z,8.55
2023-05-21T14:51:16.020Z,9.02
2023-05-21T14:53:42.751Z,8.48
2023-05-21T14:56:09.580Z,8.40
2023-05-21T14:58:36.226Z,9.57
2023-05-21T15:01:04.272Z,7.20
2023-05-21T15:03:31.157Z,6.38
2023-05-21T15:05:58.576Z,5.88
2023-05-21T15:08:25.392Z,6.57
2023-05-21T15:10:51.998Z,7.80
2023-05-21T15:13:18.878Z,7.03
2023-05-21T15:15:45.507Z,8.13
2023-05-21T15:18:12.186Z,6.90
2023-05-21T15:20:39.110Z,6.93
2023-05-21T15:23:16.198Z,8.48
2023-05-21T15:25:44.785Z,9.02
2023-05-21T15:28:14.676Z,6.90
2023-05-21T15:30:41.375Z,7.05
2023-05-21T15:33:08.616Z,7.78
2023-05-21T15:35:36.352Z,8.13
2023-05-21T15:38:03.409Z,8.77
2023-05-21T15:40:30.066Z,7.72
2023-05-21T15:42:56.538Z,6.85
2023-05-21T15:45:24.879Z,6.18
2023-05-21T15:47:51.540Z,7.50
2023-05-21T15:50:18.271Z,6.75
2023-05-21T15:52:44.755Z,6.82
2023-05-21T15:55:11.435Z,6.47
2023-05-21T15:57:38.053Z,5.65
2023-05-21T16:00:05.049Z,8.90
2023-05-21T16:02:31.998Z,7.25
2023-05-21T16:04:59.076Z,6.80
2023-05-21T16:07:25.841Z,6.20
2023-05-21T16:09:52.538Z,6.75
2023-05-21T16:12:19.440Z,6.70
2023-05-21T16:14:49.765Z,6.57
2023-05-21T16:17:16.659Z,6.22
2023-05-21T16:19:43.494Z,7.05
2023-05-21T16:22:10.970Z,7.93
2023-05-21T16:24:37.915Z,6.13
2023-05-21T16:27:05.004Z,5.95
2023-05-21T16:29:31.970Z,6.43
2023-05-21T16:31:58.688Z,8.68
2023-05-21T16:34:25.640Z,5.15
2023-05-21T16:36:52.340Z,4.95
2023-05-21T16:39:19.030Z,6.30
2023-05-21T16:41:45.698Z,5.10
2023-05-21T16:44:12.582Z,5.78
2023-05-21T16:46:39.636Z,6.22
2023-05-21T16:49:07.147Z,6.57
2023-05-21T16:51:34.179Z,5.45
2023-05-21T16:54:02.386Z,5.82
2023-05-21T16:56:29.246Z,6.80
2023-05-21T16:58:56.140Z,6.35
2023-05-21T17:01:22.890Z,7.75
2023-05-21T17:03:49.659Z,6.60
2023-05-21T17:06:16.222Z,6.43
2023-05-21T17:08:42.862Z,5.57
2023-05-21T17:11:10.079Z,7.05
2023-05-21T17:13:36.691Z,5.85
2023-05-21T17:16:03.364Z,6.25
2023-05-21T17:18:31.256Z,6.60
2023-05-21T17:20:58.870Z,5.70
2023-05-21T17:23:25.839Z,4.88
2023-05-21T17:25:52.625Z,6.10
2023-05-21T17:28:19.432Z,6.30
2023-05-21T17:30:48.675Z,5.80
2023-05-21T17:33:16.176Z,5.55
2023-05-21T17:35:42.944Z,6.10
2023-05-21T17:38:10.346Z,7.85
2023-05-21T17:40:36.905Z,6.55
2023-05-21T17:43:04.581Z,6.40
2023-05-21T17:45:31.443Z,6.75
2023-05-21T17:47:59.974Z,9.27
2023-05-21T17:50:27.304Z,7.38
2023-05-21T17:52:53.885Z,6.50
2023-05-21T17:55:20.740Z,6.00
2023-05-21T17:57:47.229Z,7.70
2023-05-21T18:00:14.283Z,6.68
2023-05-21T18:02:41.380Z,7.20
2023-05-21T18:05:08.164Z,7.07
2023-05-21T18:07:34.708Z,4.88
2023-05-21T18:10:01.774Z,7.95
2023-05-21T18:12:28.399Z,9.50
2023-05-21T18:14:55.315Z,6.82
2023-05-21T18:17:22.334Z,7.53
2023-05-21T18:19:48.951Z,5.88
2023-05-21T18:22:15.558Z,6.65
2023-05-21T18:24:42.678Z,6.40
2023-05-21T18:27:09.119Z,7.63
2023-05-21T18:29:36.708Z,7.45
2023-05-21T18:32:04.129Z,8.05
2023-05-21T18:34:30.753Z,7.57
2023-05-21T18:36:58.760Z,7.85
2023-05-21T18:39:27.121Z,6.88
2023-05-21T18:42:08.907Z,7.43
2023-05-21T18:44:39.178Z,8.52
2023-05-21T18:47:07.580Z,7.03
2023-05-21T18:49:35.733Z,8.15
2023-05-21T18:52:02.485Z,7.82
2023-05-21T18:54:29.008Z,7.93
2023-05-21T18:56:59.535Z,7.32
2023-05-21T18:59:27.156Z,6.97
2023-05-21T19:01:54.538Z,6.80
2023-05-21T19:04:21.471Z,7.10
2023-05-21T19:06:48.238Z,6.28
2023-05-21T19:09:15.101Z,6.90
2023-05-21T19:11:41.870Z,7.55
2023-05-21T19:14:08.636Z,6.15
2023-05-21T19:16:35.540Z,7.57
2023-05-21T19:19:03.327Z,7.20
2023-05-21T19:21:30.066Z,7.80
2023-05-21T19:23:56.867Z,6.93
2023-05-21T19:26:24.221Z,8.00
2023-05-21T19:28:53.692Z,5.63
2023-05-21T19:31:21.112Z,7.40
2023-05-21T19:33:48.271Z,6.72
2023-05-21T19:36:15.289Z,7.60
2023-05-21T19:38:49.255Z,6.57
2023-05-21T19:41:19.857Z,7.18
2023-05-21T19:43:46.486Z,6.60
2023-05-21T19:46:15.971Z,7.53
2023-05-21T19:48:44.827Z,6.70
2023-05-21T19:51:11.460Z,6.25
2023-05-21T19:53:38.282Z,6.43
2023-05-21T19:56:04.821Z,6.05
2023-05-21T19:58:31.505Z,6.45
2023-05-21T20:00:59.309Z,7.15
2023-05-21T20:03:26.853Z,6.55
2023-05-21T20:05:53.846Z,7.32
2023-05-21T20:08:20.780Z,6.13
2023-05-21T20:10:50.337Z,5.78
2023-05-21T20:13:18.037Z,8.23
2023-05-21T20:15:44.683Z,6.57
2023-05-21T20:18:12.661Z,5.22
2023-05-21T20:20:40.915Z,6.38
2023-05-21T20:23:07.795Z,7.22
2023-05-21T20:25:34.316Z,7.55
2023-05-21T20:28:05.046Z,6.32
2023-05-21T20:30:33.185Z,6.55
2023-05-21T20:33:03.212Z,6.78
2023-05-21T20:35:30.159Z,7.13
2023-05-21T20:37:56.672Z,6.40
2023-05-21T20:40:23.255Z,6.40
2023-05-21T20:42:53.389Z,6.18
2023-05-21T20:45:21.125Z,10.65
2023-05-21T20:47:48.277Z,6.00
2023-05-21T20:50:17.423Z,8.93
2023-05-21T20:52:46.903Z,7.55
2023-05-21T20:55:14.597Z,7.90
2023-05-21T20:57:41.875Z,6.57
2023-05-21T21:00:10.935Z,6.65
2023-05-21T21:02:39.684Z,5.72
2023-05-21T21:05:10.542Z,6.57
2023-05-21T21:07:37.333Z,6.20
2023-05-21T21:10:04.384Z,5.93
2023-05-21T21:12:31.258Z,6.85
2023-05-21T21:14:57.794Z,6.25
2023-05-21T21:17:24.921Z,6.10
2023-05-21T21:19:51.493Z,6.65
2023-05-21T21:22:18.577Z,7.25
2023-05-21T21:24:45.566Z,7.07
2023-05-21T21:27:12.280Z,8.50
2023-05-21T21:29:38.806Z,5.50
2023-05-21T21:32:06.155Z,6.72
2023-05-21T21:34:32.601Z,8.63
2023-05-21T21:36:59.013Z,6.38
2023-05-21T21:39:26.814Z,7.10
2023-05-21T21:41:53.416Z,7.80
2023-05-21T21:44:19.996Z,6.70
2023-05-21T21:46:46.799Z,7.13
2023-05-21T21:49:14.404Z,6.20
2023-05-21T21:51:41.015Z,7.03
2023-05-21T21:54:07.434Z,8.02
2023-05-21T21:56:33.946Z,5.93
2023-05-21T21:59:00.522Z,6.45
2023-05-21T22:01:27.933Z,7.45
2023-05-21T22:03:54.439Z,6.57
2023-05-21T22:06:20.990Z,6.28
2023-05-21T22:08:47.653Z,9.13
2023-05-21T22:11:14.323Z,7.22
2023-05-21T22:13:41.758Z,6.15
2023-05-21T22:16:08.282Z,7.55
2023-05-21T22:18:41.013Z,7.75
2023-05-21T22:21:09.180Z,5.25
2023-05-21T22:23:36.669Z,7.78
2023-05-21T22:26:03.520Z,7.35
2023-05-21T22:28:30.003Z,7.72
2023-05-21T22:30:56.492Z,6.38
2023-05-21T22:33:23.009Z,7.05
2023-05-21T22:35:49.567Z,7.00
2023-05-21T22:38:16.055Z,7.05
2023-05-21T22:40:42.469Z,5.90
2023-05-21T22:43:08.918Z,6.88
2023-05-21T22:45:38.222Z,8.45
2023-05-21T22:48:08.479Z,8.93
2023-05-21T22:50:35.238Z,6.90
2023-05-21T22:53:01.805Z,10.25
2023-05-21T22:55:28.231Z,7.75
2023-05-21T22:57:54.679Z,7.32
2023-05-21T23:00:21.298Z,6.28
2023-05-21T23:02:48.189Z,6.43
2023-05-21T23:05:15.067Z,6.15
2023-05-21T23:07:42.768Z,7.38
2023-05-21T23:10:09.556Z,6.32
2023-05-21T23:12:36.909Z,6.30
2023-05-21T23:15:04.956Z,6.50
2023-05-21T23:17:32.199Z,8.10
2023-05-21T23:19:59.516Z,6.00
2023-05-21T23:22:26.381Z,10.45
2023-05-21T23:24:54.296Z,7.00
2023-05-21T23:27:21.244Z,7.25
2023-05-21T23:29:47.968Z,5.78
2023-05-21T23:32:14.881Z,6.80
2023-05-21T23:34:41.955Z,5.93
2023-05-21T23:37:08.641Z,6.35
2023-05-21T23:39:35.285Z,7.78
2023-05-21T23:42:02.117Z,7.47
2023-05-21T23:44:28.943Z,7.00
2023-05-21T23:46:55.767Z,6.28
2023-05-21T23:49:22.658Z,6.72
2023-05-21T23:51:52.302Z,6.65
2023-05-21T23:54:19.275Z,7.03
2023-05-21T23:56:46.472Z,6.43
2023-05-21T23:59:15.672Z,7.63
